createdAt,value
2018-11-25T00:03:41.206Z,99722.00
2018-11-25T00:08:44.181Z,99718.00
2018-11-25T00:13:47.437Z,99710.00
2018-11-25T00:18:50.688Z,99704.00
2018-11-25T00:23:53.647Z,99708.00
2018-11-25T00:28:56.697Z,99698.00
2018-11-25T00:33:59.688Z,99705.00
2018-11-25T00:39:03.640Z,99700.00
2018-11-25T00:44:06.652Z,99697.00
2018-11-25T00:49:09.643Z,99688.00
2018-11-25T00:54:12.655Z,99700.00
2018-11-25T00:59:15.645Z,99696.00
2018-11-25T01:04:18.580Z,99695.00
2018-11-25T01:09:21.519Z,99692.00
2018-11-25T01:14:24.519Z,99698.00
2018-11-25T01:19:27.481Z,99697.00
2018-11-25T01:24:30.493Z,99675.00
2018-11-25T01:29:33.471Z,99684.00
2018-11-25T01:34:36.500Z,99683.00
2018-11-25T01:39:39.463Z,99683.00
2018-11-25T01:44:42.474Z,99678.00
2018-11-25T01:49:45.439Z,99671.00
2018-11-25T01:54:48.391Z,99672.00
2018-11-25T01:59:51.355Z,99658.00
2018-11-25T02:04:54.297Z,99651.00
2018-11-25T02:09:57.286Z,99645.00
2018-11-25T02:15:00.306Z,99635.00
2018-11-25T02:20:16.111Z,99644.00
2018-11-25T02:25:19.137Z,99643.00
2018-11-25T02:30:22.137Z,99636.00
2018-11-25T02:35:25.133Z,99642.00
2018-11-25T02:40:28.100Z,99638.00
2018-11-25T02:45:31.063Z,99630.00
2018-11-25T02:50:34.067Z,99618.00
2018-11-25T02:55:37.080Z,99633.00
2018-11-25T03:00:40.013Z,99625.00
2018-11-25T03:05:42.976Z,99631.00
2018-11-25T03:10:45.989Z,99627.00
2018-11-25T03:15:48.975Z,99618.00
2018-11-25T03:20:51.933Z,99609.00
2018-11-25T03:25:54.908Z,99611.00
2018-11-25T03:30:57.825Z,99604.00
2018-11-25T03:36:00.793Z,99597.00
2018-11-25T03:41:03.872Z,99590.00
2018-11-25T03:46:07.889Z,99595.00
2018-11-25T03:51:10.865Z,99582.00
2018-11-25T03:56:13.803Z,99577.00
2018-11-25T04:01:16.824Z,99590.00
2018-11-25T04:06:19.768Z,99581.00
2018-11-25T04:11:22.741Z,99601.00
2018-11-25T04:16:25.709Z,99600.00
2018-11-25T04:21:28.641Z,99599.00
2018-11-25T04:26:31.653Z,99592.00
2018-11-25T04:31:34.910Z,99581.00
2018-11-25T04:36:38.098Z,99587.00
2018-11-25T04:41:41.372Z,99582.00
2018-11-25T04:46:44.529Z,99586.00
2018-11-25T04:51:47.862Z,99585.00
2018-11-25T04:56:51.262Z,99577.00
2018-11-25T05:01:54.527Z,99573.00
2018-11-25T05:06:57.759Z,99577.00
2018-11-25T05:12:01.053Z,99576.00
2018-11-25T05:17:04.334Z,99569.00
2018-11-25T05:22:07.508Z,99564.00
2018-11-25T05:27:10.862Z,99564.00
2018-11-25T05:32:13.934Z,99576.00
2018-11-25T05:37:17.205Z,99577.00
2018-11-25T05:42:20.470Z,99569.00
2018-11-25T05:47:23.904Z,99565.00
2018-11-25T05:52:27.107Z,99560.00
2018-11-25T05:57:30.317Z,99562.00
2018-11-25T06:02:33.715Z,99565.00
2018-11-25T06:07:36.923Z,99561.00
2018-11-25T06:12:40.332Z,99556.00
2018-11-25T06:17:43.644Z,99549.00
2018-11-25T06:22:47.156Z,99551.00
2018-11-25T06:27:50.569Z,99551.00
2018-11-25T06:32:53.847Z,99555.00
2018-11-25T06:37:57.137Z,99557.00
2018-11-25T06:43:00.410Z,99564.00
2018-11-25T06:48:03.804Z,99565.00
2018-11-25T06:53:07.117Z,99556.00
2018-11-25T06:58:10.351Z,99552.00
2018-11-25T07:03:13.577Z,99534.00
2018-11-25T07:08:16.875Z,99537.00
2018-11-25T07:13:20.063Z,99537.00
2018-11-25T07:18:23.321Z,99528.00
2018-11-25T07:23:26.698Z,99527.00
2018-11-25T07:28:29.946Z,99530.00
2018-11-25T07:33:33.289Z,99526.00
2018-11-25T07:38:36.578Z,99533.00
2018-11-25T07:43:39.840Z,99530.00
2018-11-25T07:48:43.229Z,99531.00
2018-11-25T07:53:46.554Z,99529.00
2018-11-25T07:58:49.878Z,99537.00
2018-11-25T08:03:53.152Z,99534.00
2018-11-25T08:08:56.525Z,99526.00
2018-11-25T08:13:59.747Z,99527.00
2018-11-25T08:19:03.133Z,99522.00
2018-11-25T08:24:07.592Z,99522.00
2018-11-25T08:29:10.855Z,99524.00
2018-11-25T08:34:14.079Z,99531.00
2018-11-25T08:39:17.328Z,99523.00
2018-11-25T08:44:20.695Z,99523.00
2018-11-25T08:49:23.898Z,99513.00
2018-11-25T08:54:28.100Z,99526.00
2018-11-25T08:59:31.383Z,99516.00
2018-11-25T09:04:34.706Z,99517.00
2018-11-25T09:09:38.010Z,99514.00
2018-11-25T09:14:41.435Z,99501.00
2018-11-25T09:19:44.893Z,99507.00
2018-11-25T09:24:48.307Z,99501.00
2018-11-25T09:29:51.617Z,99496.00
2018-11-25T09:34:54.873Z,99508.00
2018-11-25T09:39:58.212Z,99498.00
2018-11-25T09:45:01.583Z,99508.00
2018-11-25T09:50:07.492Z,99506.00
2018-11-25T09:55:14.925Z,99504.00
2018-11-25T10:00:21.784Z,99503.00
2018-11-25T10:05:25.191Z,99493.00
2018-11-25T10:10:29.013Z,99481.00
2018-11-25T10:15:32.424Z,99470.00
2018-11-25T10:20:35.832Z,99470.00
2018-11-25T10:25:39.265Z,99466.00
2018-11-25T10:30:42.589Z,99456.00
2018-11-25T10:35:45.930Z,99456.00
2018-11-25T10:40:49.274Z,99467.00
2018-11-25T10:45:53.217Z,99468.00
2018-11-25T10:50:56.655Z,99463.00
2018-11-25T10:55:59.980Z,99461.00
2018-11-25T11:01:09.255Z,99454.00
2018-11-25T11:11:44.995Z,99448.00
2018-11-25T11:16:53.823Z,99444.00
2018-11-25T11:21:51.276Z,99435.00
2018-11-25T11:26:54.406Z,99444.00
2018-11-25T11:31:57.292Z,99429.00
2018-11-25T11:37:00.127Z,99438.00
2018-11-25T11:42:03.013Z,99428.00
2018-11-25T11:47:06.121Z,99426.00
2018-11-25T11:52:08.984Z,99419.00
2018-11-25T11:57:11.824Z,99416.00
2018-11-25T12:02:14.709Z,99419.00
2018-11-25T12:07:17.557Z,99412.00
2018-11-25T12:12:20.438Z,99404.00
2018-11-25T12:17:23.659Z,99404.00
2018-11-25T12:22:26.798Z,99399.00
2018-11-25T12:27:29.826Z,99415.00
2018-11-25T12:32:32.999Z,99406.00
2018-11-25T12:37:36.463Z,99415.00
2018-11-25T12:42:39.572Z,99419.00
2018-11-25T12:47:42.738Z,99410.00
2018-11-25T12:52:45.958Z,99396.00
2018-11-25T12:57:49.335Z,99402.00
2018-11-25T13:02:52.624Z,99398.00
2018-11-25T13:07:56.829Z,99393.00
2018-11-25T13:13:00.239Z,99396.00
2018-11-25T13:18:03.931Z,99391.00
2018-11-25T13:23:07.178Z,99381.00
2018-11-25T13:28:10.432Z,99380.00
2018-11-25T13:33:13.782Z,99362.00
2018-11-25T13:38:17.221Z,99358.00
2018-11-25T13:43:20.548Z,99365.00
2018-11-25T13:48:24.078Z,99361.00
2018-11-25T13:53:27.754Z,99359.00
2018-11-25T13:58:30.695Z,99353.00
2018-11-25T14:03:37.022Z,99342.00
2018-11-25T14:08:40.232Z,99341.00
2018-11-25T14:13:43.253Z,99349.00
2018-11-25T14:18:46.315Z,99342.00
2018-11-25T14:23:49.283Z,99353.00
2018-11-25T14:28:52.941Z,99347.00
2018-11-25T14:33:55.988Z,99338.00
2018-11-25T14:38:59.197Z,99343.00
2018-11-25T14:44:02.217Z,99333.00
2018-11-25T14:49:07.262Z,99337.00
2018-11-25T14:54:10.341Z,99333.00
2018-11-25T14:59:13.598Z,99333.00
2018-11-25T15:04:16.642Z,99327.00
2018-11-25T15:09:19.581Z,99317.00
2018-11-25T15:14:22.609Z,99327.00
2018-11-25T15:19:25.584Z,99322.00
2018-11-25T15:24:28.516Z,99328.00
2018-11-25T15:29:31.447Z,99326.00
2018-11-25T15:34:34.449Z,99326.00
2018-11-25T15:39:37.438Z,99329.00
2018-11-25T15:44:40.414Z,99329.00
2018-11-25T15:49:43.508Z,99323.00
2018-11-25T15:54:46.563Z,99314.00
2018-11-25T15:59:49.508Z,99315.00
2018-11-25T16:04:52.460Z,99310.00
2018-11-25T16:09:55.487Z,99313.00
2018-11-25T16:14:58.536Z,99311.00
2018-11-25T16:20:01.746Z,99319.00
2018-11-25T16:25:14.316Z,99318.00
2018-11-25T16:30:17.354Z,99323.00
2018-11-25T16:35:20.553Z,99325.00
2018-11-25T16:40:23.528Z,99325.00
2018-11-25T16:45:26.565Z,99328.00
2018-11-25T16:50:29.674Z,99323.00
2018-11-25T16:55:32.790Z,99324.00
2018-11-25T17:00:35.849Z,99324.00
2018-11-25T17:05:41.721Z,99324.00
2018-11-25T17:10:44.854Z,99313.00
2018-11-25T17:15:47.844Z,99318.00
2018-11-25T17:20:50.923Z,99326.00
2018-11-25T17:25:54.007Z,99326.00
2018-11-25T17:30:57.060Z,99322.00
2018-11-25T17:36:00.203Z,99319.00
2018-11-25T17:41:03.537Z,99308.00
2018-11-25T17:46:06.653Z,99309.00
2018-11-25T17:51:09.779Z,99306.00
2018-11-25T17:56:12.944Z,99309.00
2018-11-25T18:01:16.031Z,99317.00
2018-11-25T18:06:19.003Z,99315.00
2018-11-25T18:11:22.041Z,99313.00
2018-11-25T18:16:27.196Z,99315.00
2018-11-25T18:21:30.218Z,99319.00
2018-11-25T18:26:33.525Z,99331.00
2018-11-25T18:31:36.368Z,99325.00
2018-11-25T18:36:39.508Z,99326.00
2018-11-25T18:41:42.530Z,99314.00
2018-11-25T18:46:47.586Z,99326.00
2018-11-25T18:51:48.773Z,99326.00
2018-11-25T18:56:51.713Z,99321.00
2018-11-25T19:02:07.175Z,99327.00
2018-11-25T19:07:10.198Z,99308.00
2018-11-25T19:12:13.250Z,99324.00
2018-11-25T19:17:17.202Z,99320.00
2018-11-25T19:22:20.228Z,99316.00
2018-11-25T19:27:23.333Z,99311.00
2018-11-25T19:32:26.190Z,99312.00
2018-11-25T19:37:29.079Z,99318.00
2018-11-25T19:42:32.538Z,99317.00
2018-11-25T19:47:35.089Z,99319.00
2018-11-25T19:52:38.114Z,99318.00
2018-11-25T19:57:41.087Z,99319.00
2018-11-25T20:02:44.400Z,99315.00
2018-11-25T20:07:47.583Z,99316.00
2018-11-25T20:12:54.964Z,99313.00
2018-11-25T20:17:57.970Z,99315.00
2018-11-25T20:23:00.967Z,99314.00
2018-11-25T20:28:04.199Z,99313.00
2018-11-25T20:33:13.000Z,99315.00
2018-11-25T20:38:21.861Z,99329.00
2018-11-25T20:43:24.886Z,99330.00
2018-11-25T20:48:28.079Z,99332.00
2018-11-25T20:53:36.950Z,99327.00
2018-11-25T20:58:39.955Z,99329.00
2018-11-25T21:03:42.929Z,99333.00
2018-11-25T21:08:46.003Z,99335.00
2018-11-25T21:13:49.005Z,99340.00
2018-11-25T21:18:52.006Z,99326.00
2018-11-25T21:23:55.117Z,99312.00
2018-11-25T21:28:58.173Z,99300.00
2018-11-25T21:34:01.954Z,99298.00
2018-11-25T21:39:09.210Z,99306.00
2018-11-25T21:44:12.195Z,99300.00
2018-11-25T21:49:15.143Z,99294.00
2018-11-25T21:54:18.105Z,99296.00
2018-11-25T21:59:21.050Z,99296.00
2018-11-25T22:04:24.063Z,99295.00
2018-11-25T22:09:27.672Z,99309.00
2018-11-25T22:14:31.098Z,99304.00
2018-11-25T22:19:34.101Z,99296.00
2018-11-25T22:24:37.100Z,99311.00
2018-11-25T22:29:40.108Z,99300.00
2018-11-25T22:34:43.196Z,99300.00
2018-11-25T22:39:46.191Z,99308.00
2018-11-25T22:44:49.164Z,99318.00
2018-11-25T22:49:52.082Z,99311.00
2018-11-25T22:54:55.079Z,99322.00
2018-11-25T22:59:58.077Z,99326.00
2018-11-25T23:05:18.398Z,99327.00
2018-11-25T23:10:21.382Z,99327.00
2018-11-25T23:15:24.361Z,99325.00
2018-11-25T23:20:27.337Z,99325.00
2018-11-25T23:25:30.334Z,99321.00
2018-11-25T23:30:33.262Z,99322.00
2018-11-25T23:35:36.225Z,99319.00
2018-11-25T23:40:39.532Z,99323.00
2018-11-25T23:45:42.124Z,99314.00
2018-11-25T23:50:45.059Z,99311.00
2018-11-25T23:55:47.959Z,99314.00
